createdAt,value
2018-08-20T00:00:14.681Z,16.74
2018-08-20T00:02:44.534Z,16.85
2018-08-20T00:05:13.946Z,16.50
2018-08-20T00:07:43.305Z,16.61
2018-08-20T00:10:13.411Z,16.57
2018-08-20T00:12:43.595Z,16.76
2018-08-20T00:15:13.107Z,16.62
2018-08-20T00:17:42.325Z,16.53
2018-08-20T00:20:11.933Z,16.63
2018-08-20T00:22:41.346Z,16.58
2018-08-20T00:25:14.748Z,16.46
2018-08-20T00:27:44.623Z,16.32
2018-08-20T00:30:15.540Z,16.41
2018-08-20T00:32:46.027Z,16.57
2018-08-20T00:35:17.151Z,16.66
2018-08-20T00:37:49.039Z,16.52
2018-08-20T00:40:18.848Z,16.52
2018-08-20T00:42:48.329Z,16.42
2018-08-20T00:45:17.770Z,16.32
2018-08-20T00:47:47.103Z,16.23
2018-08-20T00:50:16.340Z,16.39
2018-08-20T00:52:46.884Z,16.22
2018-08-20T00:55:16.246Z,16.19
2018-08-20T00:57:45.499Z,16.20
2018-08-20T01:00:14.946Z,16.15
2018-08-20T01:02:44.268Z,16.13
2018-08-20T01:05:13.644Z,16.06
2018-08-20T01:07:42.864Z,15.93
2018-08-20T01:10:12.287Z,15.97
2018-08-20T01:12:41.676Z,16.15
2018-08-20T01:15:11.317Z,16.06
2018-08-20T01:17:40.754Z,15.86
2018-08-20T01:20:10.079Z,15.74
2018-08-20T01:22:39.450Z,15.85
2018-08-20T01:25:08.923Z,15.93
2018-08-20T01:27:39.354Z,15.99
2018-08-20T01:30:08.648Z,15.92
2018-08-20T01:32:38.054Z,15.78
2018-08-20T01:35:19.143Z,15.80
2018-08-20T01:37:48.573Z,15.79
2018-08-20T01:40:17.940Z,15.76
2018-08-20T01:42:47.317Z,15.85
2018-08-20T01:45:16.419Z,15.90
2018-08-20T01:47:45.489Z,15.86
2018-08-20T01:50:14.465Z,15.71
2018-08-20T01:52:43.525Z,15.66
2018-08-20T01:55:12.549Z,15.75
2018-08-20T01:57:41.593Z,15.73
2018-08-20T02:00:10.906Z,15.79
2018-08-20T02:02:40.218Z,15.84
2018-08-20T02:05:09.330Z,15.83
2018-08-20T02:07:38.872Z,15.89
2018-08-20T02:10:09.720Z,15.82
2018-08-20T02:12:40.219Z,15.72
2018-08-20T02:15:09.267Z,15.70
2018-08-20T02:17:38.259Z,15.70
2018-08-20T02:20:07.728Z,15.66
2018-08-20T02:22:36.702Z,15.59
2018-08-20T02:25:06.511Z,15.59
2018-08-20T02:27:35.490Z,15.75
2018-08-20T02:30:05.288Z,15.68
2018-08-20T02:32:34.367Z,15.49
2018-08-20T02:35:03.424Z,15.47
2018-08-20T02:37:48.280Z,15.41
2018-08-20T02:40:18.785Z,15.32
2018-08-20T02:42:48.024Z,15.37
2018-08-20T02:45:18.624Z,15.27
2018-08-20T02:47:48.261Z,15.38
2018-08-20T02:50:17.605Z,15.33
2018-08-20T02:52:47.138Z,15.22
2018-08-20T02:55:16.483Z,15.19
2018-08-20T02:57:45.750Z,15.28
2018-08-20T03:00:15.270Z,15.30
2018-08-20T03:02:44.636Z,15.08
2018-08-20T03:05:14.062Z,15.29
2018-08-20T03:07:43.376Z,15.20
2018-08-20T03:10:13.587Z,15.02
2018-08-20T03:12:43.214Z,15.18
2018-08-20T03:15:12.738Z,15.10
2018-08-20T03:17:41.973Z,15.11
2018-08-20T03:20:11.307Z,15.21
2018-08-20T03:22:40.658Z,15.12
2018-08-20T03:25:10.510Z,15.17
2018-08-20T03:27:39.847Z,15.13
2018-08-20T03:30:09.939Z,15.02
2018-08-20T03:32:39.933Z,15.08
2018-08-20T03:35:10.652Z,15.01
2018-08-20T03:37:40.103Z,15.06
2018-08-20T03:40:11.170Z,14.96
2018-08-20T03:42:40.717Z,14.98
2018-08-20T03:45:10.788Z,14.93
2018-08-20T03:47:40.023Z,15.04
2018-08-20T03:50:13.225Z,14.94
2018-08-20T03:52:42.753Z,14.93
2018-08-20T03:55:12.217Z,14.84
2018-08-20T03:57:41.477Z,14.77
2018-08-20T04:00:11.779Z,14.90
2018-08-20T04:02:41.128Z,14.82
2018-08-20T04:05:10.748Z,14.80
2018-08-20T04:07:40.047Z,14.90
2018-08-20T04:10:09.434Z,14.90
2018-08-20T04:12:38.725Z,14.84
2018-08-20T04:15:07.973Z,14.88
2018-08-20T04:17:37.154Z,14.77
2018-08-20T04:20:06.653Z,14.85
2018-08-20T04:22:35.991Z,15.04
2018-08-20T04:25:05.406Z,14.94
2018-08-20T04:27:34.767Z,14.87
2018-08-20T04:30:04.610Z,14.77
2018-08-20T04:32:33.967Z,14.82
2018-08-20T04:35:03.310Z,14.87
2018-08-20T04:37:32.882Z,15.02
2018-08-20T04:40:02.162Z,15.07
2018-08-20T04:42:32.860Z,15.08
2018-08-20T04:45:03.200Z,15.06
2018-08-20T04:47:32.612Z,15.11
2018-08-20T04:50:02.071Z,15.17
2018-08-20T04:52:32.210Z,15.22
2018-08-20T04:55:01.540Z,15.14
2018-08-20T04:57:30.885Z,15.19
2018-08-20T05:00:00.412Z,15.16
2018-08-20T05:02:29.825Z,15.16
2018-08-20T05:04:59.254Z,15.16
2018-08-20T05:07:28.732Z,15.23
2018-08-20T05:09:59.122Z,15.34
2018-08-20T05:12:28.663Z,15.42
2018-08-20T05:14:58.160Z,15.57
2018-08-20T05:17:27.791Z,15.65
2018-08-20T05:19:57.217Z,15.55
2018-08-20T05:22:26.469Z,15.63
2018-08-20T05:24:55.854Z,15.58
2018-08-20T05:27:25.324Z,15.78
2018-08-20T05:29:54.688Z,16.08
2018-08-20T05:32:24.072Z,16.34
2018-08-20T05:34:53.551Z,16.57
2018-08-20T05:37:22.921Z,16.41
2018-08-20T05:39:52.334Z,16.60
2018-08-20T05:42:21.884Z,16.83
2018-08-20T05:44:51.813Z,17.07
2018-08-20T05:47:21.631Z,17.02
2018-08-20T05:49:52.135Z,17.24
2018-08-20T05:52:21.256Z,17.41
2018-08-20T05:54:50.326Z,17.50
2018-08-20T05:57:19.872Z,17.75
2018-08-20T05:59:49.234Z,17.97
2018-08-20T06:02:18.733Z,18.14
2018-08-20T06:04:48.193Z,17.98
2018-08-20T06:07:20.554Z,18.07
2018-08-20T06:09:49.992Z,18.37
2018-08-20T06:12:19.311Z,18.66
2018-08-20T06:14:48.576Z,19.06
2018-08-20T06:17:18.059Z,19.01
2018-08-20T06:19:48.609Z,19.16
2018-08-20T06:22:18.176Z,19.13
2018-08-20T06:24:47.526Z,19.00
2018-08-20T06:27:17.250Z,18.83
2018-08-20T06:29:47.873Z,18.97
2018-08-20T06:32:17.760Z,18.75
2018-08-20T06:34:47.230Z,18.63
2018-08-20T06:37:16.681Z,18.55
2018-08-20T06:39:45.742Z,19.38
2018-08-20T06:42:14.978Z,19.49
2018-08-20T06:44:44.708Z,19.94
2018-08-20T06:47:14.031Z,20.25
2018-08-20T06:49:43.573Z,20.22
2018-08-20T06:52:14.020Z,20.20
2018-08-20T06:54:43.353Z,20.25
2018-08-20T06:57:12.727Z,20.50
2018-08-20T06:59:42.189Z,20.39
2018-08-20T07:02:12.161Z,20.41
2018-08-20T07:04:41.821Z,19.81
2018-08-20T07:07:11.385Z,19.53
2018-08-20T07:09:40.864Z,19.95
2018-08-20T07:12:10.399Z,20.06
2018-08-20T07:14:39.846Z,20.80
2018-08-20T07:17:09.188Z,21.38
2018-08-20T07:19:38.740Z,21.30
2018-08-20T07:22:08.109Z,21.51
2018-08-20T07:24:37.912Z,21.18
2018-08-20T07:27:08.457Z,21.47
2018-08-20T07:29:40.537Z,21.74
2018-08-20T07:32:11.786Z,21.46
2018-08-20T07:34:42.396Z,21.74
2018-08-20T07:37:13.762Z,22.05
2018-08-20T07:39:45.438Z,22.03
2018-08-20T07:42:14.846Z,22.16
2018-08-20T07:44:45.010Z,21.99
2018-08-20T07:47:14.802Z,22.98
2018-08-20T07:49:44.291Z,22.10
2018-08-20T07:52:13.855Z,22.28
2018-08-20T07:54:43.177Z,22.43
2018-08-20T07:57:12.818Z,22.32
2018-08-20T07:59:42.162Z,22.46
2018-08-20T08:02:11.509Z,23.41
2018-08-20T08:04:40.984Z,23.40
2018-08-20T08:07:10.355Z,23.06
2018-08-20T08:09:40.059Z,23.44
2018-08-20T08:12:10.622Z,22.91
2018-08-20T08:14:40.398Z,23.23
2018-08-20T08:17:09.999Z,23.34
2018-08-20T08:19:39.526Z,23.65
2018-08-20T08:22:10.162Z,24.00
2018-08-20T08:24:40.494Z,24.36
2018-08-20T08:27:09.814Z,23.13
2018-08-20T08:29:39.465Z,23.04
2018-08-20T08:32:09.123Z,23.51
2018-08-20T08:34:38.834Z,24.32
2018-08-20T08:37:08.343Z,24.68
2018-08-20T08:39:37.817Z,24.63
2018-08-20T08:42:07.568Z,24.02
2018-08-20T08:44:36.960Z,24.22
2018-08-20T08:47:06.841Z,24.67
2018-08-20T08:49:38.188Z,24.61
2018-08-20T08:52:07.619Z,25.35
2018-08-20T08:54:37.602Z,24.77
2018-08-20T08:57:07.129Z,25.04
2018-08-20T08:59:37.667Z,25.25
2018-08-20T09:02:07.009Z,25.16
2018-08-20T09:04:37.338Z,24.83
2018-08-20T09:07:06.709Z,24.88
2018-08-20T09:09:36.133Z,25.26
2018-08-20T09:12:05.639Z,26.00
2018-08-20T09:14:35.070Z,26.16
2018-08-20T09:17:04.541Z,26.22
2018-08-20T09:19:35.009Z,26.18
2018-08-20T09:22:05.265Z,26.10
2018-08-20T09:24:35.054Z,26.12
2018-08-20T09:27:05.583Z,26.72
2018-08-20T09:29:34.878Z,26.74
2018-08-20T09:32:04.395Z,26.35
2018-08-20T09:34:33.897Z,26.54
2018-08-20T09:37:03.346Z,26.72
2018-08-20T09:39:33.766Z,27.02
2018-08-20T09:42:03.146Z,26.94
2018-08-20T09:44:32.582Z,26.90
2018-08-20T09:47:01.989Z,27.24
2018-08-20T09:49:31.434Z,27.52
2018-08-20T09:52:00.880Z,27.67
2018-08-20T09:54:30.202Z,27.33
2018-08-20T09:56:59.788Z,27.06
2018-08-20T09:59:29.267Z,27.02
2018-08-20T10:01:59.784Z,27.06
2018-08-20T10:04:30.004Z,26.79
2018-08-20T10:07:00.292Z,26.67
2018-08-20T10:09:30.593Z,26.90
2018-08-20T10:11:59.927Z,26.96
2018-08-20T10:14:29.600Z,27.19
2018-08-20T10:16:58.884Z,27.31
2018-08-20T10:19:28.832Z,27.31
2018-08-20T10:21:58.480Z,27.30
2018-08-20T10:24:27.752Z,27.22
2018-08-20T10:26:57.145Z,27.32
2018-08-20T10:29:26.576Z,27.28
2018-08-20T10:31:56.175Z,27.24
2018-08-20T10:34:25.816Z,27.22
2018-08-20T10:36:54.975Z,27.22
2018-08-20T10:39:25.153Z,27.18
2018-08-20T10:41:54.470Z,27.54
2018-08-20T10:44:24.828Z,28.17
2018-08-20T10:46:54.633Z,28.41
2018-08-20T10:49:24.334Z,28.68
2018-08-20T10:51:53.446Z,29.12
2018-08-20T10:54:22.503Z,28.41
2018-08-20T10:56:51.649Z,28.54
2018-08-20T10:59:20.736Z,28.26
2018-08-20T11:01:50.092Z,28.26
2018-08-20T11:04:19.549Z,28.37
2018-08-20T11:06:48.888Z,28.32
2018-08-20T11:09:18.076Z,28.40
2018-08-20T11:11:47.088Z,28.54
2018-08-20T11:14:16.227Z,28.51
2018-08-20T11:16:45.589Z,28.47
2018-08-20T11:19:14.839Z,28.11
2018-08-20T11:21:43.997Z,28.22
2018-08-20T11:24:13.415Z,28.48
2018-08-20T11:26:43.844Z,28.95
2018-08-20T11:29:13.007Z,28.98
2018-08-20T11:31:42.317Z,29.02
2018-08-20T11:34:11.441Z,28.98
2018-08-20T11:36:40.681Z,28.71
2018-08-20T11:39:10.115Z,28.53
2018-08-20T11:41:39.988Z,28.15
2018-08-20T11:44:09.490Z,28.68
2018-08-20T11:46:39.131Z,29.12
2018-08-20T11:49:08.493Z,28.93
2018-08-20T11:51:37.686Z,28.79
2018-08-20T11:54:07.308Z,28.84
2018-08-20T11:56:38.121Z,28.67
2018-08-20T11:59:08.061Z,28.61
2018-08-20T12:01:38.893Z,28.52
2018-08-20T12:04:09.798Z,28.41
2018-08-20T12:06:40.102Z,28.42
2018-08-20T12:09:09.979Z,28.50
2018-08-20T12:11:39.542Z,28.50
2018-08-20T12:14:10.657Z,28.24
2018-08-20T12:16:40.338Z,28.02
2018-08-20T12:19:09.706Z,28.09
2018-08-20T12:21:39.040Z,27.86
2018-08-20T12:24:09.564Z,27.33
2018-08-20T12:26:39.162Z,27.58
2018-08-20T12:29:09.810Z,27.73
2018-08-20T12:31:39.505Z,27.76
2018-08-20T12:34:09.033Z,27.84
2018-08-20T12:36:42.390Z,27.98
2018-08-20T12:39:12.222Z,28.21
2018-08-20T12:41:47.101Z,28.72
2018-08-20T12:44:17.379Z,29.39
2018-08-20T12:46:46.908Z,29.43
2018-08-20T12:49:17.436Z,29.70
2018-08-20T12:51:46.806Z,29.97
2018-08-20T12:54:16.170Z,29.72
2018-08-20T12:56:45.686Z,29.91
2018-08-20T12:59:14.988Z,29.56
2018-08-20T13:01:44.689Z,29.12
2018-08-20T13:04:14.255Z,28.87
2018-08-20T13:06:43.746Z,28.89
2018-08-20T13:09:13.358Z,28.82
2018-08-20T13:11:42.649Z,28.90
2018-08-20T13:14:11.989Z,29.04
2018-08-20T13:16:40.978Z,29.43
2018-08-20T13:19:09.939Z,29.65
2018-08-20T13:21:39.494Z,29.80
2018-08-20T13:24:09.106Z,29.92
2018-08-20T13:26:38.817Z,29.49
2018-08-20T13:29:08.226Z,29.05
2018-08-20T13:31:37.777Z,28.85
2018-08-20T13:34:07.672Z,28.88
2018-08-20T13:36:39.230Z,28.75
2018-08-20T13:39:09.381Z,29.02
2018-08-20T13:41:38.808Z,29.19
2018-08-20T13:44:08.525Z,28.86
2018-08-20T13:46:39.158Z,28.55
2018-08-20T13:49:08.538Z,28.80
2018-08-20T13:51:37.889Z,29.12
2018-08-20T13:54:07.581Z,29.35
2018-08-20T13:56:37.349Z,29.63
2018-08-20T13:59:06.617Z,29.51
2018-08-20T14:01:36.053Z,29.41
2018-08-20T14:04:05.311Z,29.07
2018-08-20T14:06:34.613Z,29.30
2018-08-20T14:09:06.058Z,29.49
2018-08-20T14:11:35.517Z,29.21
2018-08-20T14:14:05.307Z,28.99
2018-08-20T14:16:34.735Z,29.07
2018-08-20T14:19:03.933Z,29.26
2018-08-20T14:21:33.421Z,29.27
2018-08-20T14:24:02.933Z,29.27
2018-08-20T14:26:32.452Z,29.33
2018-08-20T14:29:01.896Z,29.50
2018-08-20T14:31:31.100Z,29.52
2018-08-20T14:34:01.376Z,29.68
2018-08-20T14:36:31.340Z,29.76
2018-08-20T14:39:00.901Z,29.66
2018-08-20T14:41:30.440Z,29.77
2018-08-20T14:44:00.919Z,29.70
2018-08-20T14:46:30.500Z,29.45
2018-08-20T14:48:59.989Z,29.69
2018-08-20T14:51:29.484Z,29.37
2018-08-20T14:53:59.093Z,29.50
2018-08-20T14:56:28.678Z,29.69
2018-08-20T14:58:58.617Z,29.68
2018-08-20T15:01:28.205Z,29.70
2018-08-20T15:03:57.798Z,29.69
2018-08-20T15:06:27.533Z,29.77
2018-08-20T15:08:57.104Z,29.51
2018-08-20T15:11:26.640Z,29.35
2018-08-20T15:13:56.279Z,29.22
2018-08-20T15:16:26.169Z,28.81
2018-08-20T15:18:55.664Z,28.77
2018-08-20T15:21:25.618Z,28.56
2018-08-20T15:23:56.286Z,28.39
2018-08-20T15:26:25.611Z,28.31
2018-08-20T15:28:55.301Z,28.38
2018-08-20T15:31:24.720Z,28.39
2018-08-20T15:33:54.248Z,28.43
2018-08-20T15:36:23.930Z,28.66
2018-08-20T15:38:54.293Z,28.67
2018-08-20T15:41:23.704Z,28.55
2018-08-20T15:43:54.340Z,28.66
2018-08-20T15:46:23.946Z,28.32
2018-08-20T15:48:53.376Z,28.09
2018-08-20T15:51:23.496Z,27.78
2018-08-20T15:53:53.588Z,27.52
2018-08-20T15:56:23.177Z,27.43
2018-08-20T15:58:52.598Z,27.09
2018-08-20T16:01:22.137Z,27.11
2018-08-20T16:03:51.594Z,27.02
2018-08-20T16:06:20.854Z,26.75
2018-08-20T16:08:50.956Z,26.73
2018-08-20T16:11:20.350Z,26.74
2018-08-20T16:13:49.775Z,26.56
2018-08-20T16:16:18.993Z,26.43
2018-08-20T16:18:49.141Z,26.33
2018-08-20T16:21:18.560Z,26.08
2018-08-20T16:23:47.893Z,25.99
2018-08-20T16:26:17.359Z,25.86
2018-08-20T16:28:46.901Z,25.72
2018-08-20T16:31:16.272Z,25.78
2018-08-20T16:33:45.780Z,25.65
2018-08-20T16:36:15.213Z,25.46
2018-08-20T16:38:45.174Z,25.39
2018-08-20T16:41:15.509Z,25.28
2018-08-20T16:43:45.362Z,25.33
2018-08-20T16:46:15.842Z,25.32
2018-08-20T16:48:46.292Z,25.26
2018-08-20T16:51:16.357Z,25.26
2018-08-20T16:53:46.722Z,25.26
2018-08-20T16:56:16.858Z,25.28
2018-08-20T16:58:46.988Z,25.19
2018-08-20T17:01:19.355Z,25.15
2018-08-20T17:03:50.288Z,25.00
2018-08-20T17:06:19.816Z,25.05
2018-08-20T17:08:50.386Z,24.90
2018-08-20T17:11:19.805Z,24.90
2018-08-20T17:13:49.081Z,24.89
2018-08-20T17:16:18.536Z,24.91
2018-08-20T17:18:47.679Z,24.80
2018-08-20T17:21:17.032Z,24.71
2018-08-20T17:23:46.641Z,24.71
2018-08-20T17:26:17.276Z,24.67
2018-08-20T17:28:50.082Z,24.60
2018-08-20T17:31:20.373Z,24.55
2018-08-20T17:33:49.676Z,24.42
2018-08-20T17:36:19.035Z,24.32
2018-08-20T17:38:48.394Z,24.21
2018-08-20T17:41:17.749Z,24.13
2018-08-20T17:43:47.398Z,24.07
2018-08-20T17:46:16.976Z,23.87
2018-08-20T17:48:46.581Z,23.85
2018-08-20T17:51:16.634Z,23.79
2018-08-20T17:53:54.039Z,23.85
2018-08-20T17:56:23.456Z,23.86
2018-08-20T17:58:59.085Z,23.63
2018-08-20T18:01:28.654Z,23.53
2018-08-20T18:03:57.975Z,23.54
2018-08-20T18:06:47.269Z,23.33
2018-08-20T18:09:17.656Z,23.22
2018-08-20T18:11:49.742Z,23.13
2018-08-20T18:14:20.760Z,23.14
2018-08-20T18:16:51.017Z,23.08
2018-08-20T18:19:20.423Z,22.96
2018-08-20T18:21:50.124Z,22.84
2018-08-20T18:24:21.844Z,22.77
2018-08-20T18:26:58.167Z,22.47
2018-08-20T18:29:27.701Z,22.53
2018-08-20T18:32:01.695Z,22.59
2018-08-20T18:34:31.228Z,22.62
2018-08-20T18:37:03.779Z,22.45
2018-08-20T18:39:33.191Z,22.32
2018-08-20T18:42:06.679Z,22.22
2018-08-20T18:44:37.602Z,22.22
2018-08-20T18:47:08.534Z,22.29
2018-08-20T18:49:58.895Z,22.10
2018-08-20T18:52:30.888Z,21.70
2018-08-20T18:55:01.179Z,22.01
2018-08-20T18:57:34.871Z,22.03
2018-08-20T19:00:07.734Z,21.85
2018-08-20T19:02:43.223Z,21.81
2018-08-20T19:05:14.404Z,21.58
2018-08-20T19:07:44.473Z,21.67
2018-08-20T19:10:21.659Z,21.49
2018-08-20T19:12:51.663Z,21.56
2018-08-20T19:15:36.445Z,21.48
2018-08-20T19:18:07.028Z,21.63
2018-08-20T19:20:37.082Z,21.47
2018-08-20T19:23:08.626Z,21.28
2018-08-20T19:25:38.281Z,21.20
2018-08-20T19:28:17.757Z,21.19
2018-08-20T19:30:48.841Z,21.27
2018-08-20T19:33:26.852Z,21.07
2018-08-20T19:35:57.067Z,21.09
2018-08-20T19:38:27.373Z,21.03
2018-08-20T19:41:12.822Z,20.92
2018-08-20T19:43:47.722Z,21.01
2018-08-20T19:46:32.565Z,20.83
2018-08-20T19:49:13.675Z,20.86
2018-08-20T19:51:45.358Z,20.93
2018-08-20T19:54:16.415Z,20.92
2018-08-20T19:56:46.110Z,20.92
2018-08-20T19:59:19.554Z,20.92
2018-08-20T20:01:49.688Z,21.04
2018-08-20T20:04:19.049Z,20.99
2018-08-20T20:06:48.241Z,20.93
2018-08-20T20:09:17.645Z,20.80
2018-08-20T20:11:48.660Z,20.73
2018-08-20T20:14:17.905Z,20.77
2018-08-20T20:16:52.516Z,20.62
2018-08-20T20:19:22.318Z,20.55
2018-08-20T20:21:51.847Z,20.45
2018-08-20T20:24:22.409Z,20.43
2018-08-20T20:26:52.050Z,20.22
2018-08-20T20:29:21.533Z,20.25
2018-08-20T20:31:51.740Z,20.20
2018-08-20T20:34:21.486Z,20.16
2018-08-20T20:36:50.958Z,20.11
2018-08-20T20:39:21.004Z,20.24
2018-08-20T20:41:50.350Z,20.18
2018-08-20T20:44:19.768Z,20.08
2018-08-20T20:46:50.714Z,20.03
2018-08-20T20:49:21.292Z,19.98
2018-08-20T20:51:51.298Z,19.95
2018-08-20T20:54:21.752Z,19.99
2018-08-20T20:56:52.492Z,19.99
2018-08-20T20:59:22.375Z,19.95
2018-08-20T21:01:51.827Z,19.80
2018-08-20T21:04:21.535Z,19.81
2018-08-20T21:06:51.098Z,19.80
2018-08-20T21:09:23.538Z,19.79
2018-08-20T21:11:53.128Z,19.80
2018-08-20T21:14:23.105Z,19.67
2018-08-20T21:16:52.784Z,19.69
2018-08-20T21:19:22.581Z,19.66
2018-08-20T21:21:52.307Z,19.49
2018-08-20T21:24:21.818Z,19.28
2018-08-20T21:26:51.230Z,19.34
2018-08-20T21:29:22.000Z,19.29
2018-08-20T21:31:54.231Z,19.31
2018-08-20T21:34:28.354Z,19.32
2018-08-20T21:36:58.209Z,19.35
2018-08-20T21:39:27.800Z,19.22
2018-08-20T21:41:57.887Z,19.37
2018-08-20T21:44:27.737Z,19.29
2018-08-20T21:46:56.988Z,19.19
2018-08-20T21:49:26.368Z,19.05
2018-08-20T21:51:58.553Z,19.19
2018-08-20T21:54:33.005Z,19.28
2018-08-20T21:57:02.939Z,19.12
2018-08-20T21:59:32.099Z,19.04
2018-08-20T22:02:01.198Z,18.93
2018-08-20T22:04:31.787Z,18.91
2018-08-20T22:07:01.069Z,18.72
2018-08-20T22:09:30.201Z,18.61
2018-08-20T22:12:00.568Z,18.55
2018-08-20T22:14:30.647Z,18.60
2018-08-20T22:16:59.885Z,18.48
2018-08-20T22:19:29.159Z,18.52
2018-08-20T22:21:58.318Z,18.47
2018-08-20T22:24:27.628Z,18.50
2018-08-20T22:26:59.338Z,18.39
2018-08-20T22:29:38.164Z,18.33
2018-08-20T22:32:09.122Z,18.28
2018-08-20T22:34:38.457Z,18.18
2018-08-20T22:37:09.923Z,18.24
2018-08-20T22:39:39.346Z,18.23
2018-08-20T22:42:10.094Z,18.08
2018-08-20T22:44:39.568Z,18.15
2018-08-20T22:47:09.085Z,18.22
2018-08-20T22:49:39.438Z,18.08
2018-08-20T22:52:09.420Z,17.96
2018-08-20T22:54:38.832Z,17.98
2018-08-20T22:57:08.440Z,18.06
2018-08-20T22:59:38.892Z,17.92
2018-08-20T23:02:08.306Z,17.95
2018-08-20T23:04:37.810Z,18.04
2018-08-20T23:07:11.787Z,17.94
2018-08-20T23:09:41.164Z,17.94
2018-08-20T23:12:10.392Z,17.72
2018-08-20T23:14:40.619Z,17.56
2018-08-20T23:17:09.983Z,17.71
2018-08-20T23:19:40.373Z,17.73
2018-08-20T23:22:10.225Z,17.57
2018-08-20T23:24:44.589Z,17.47
2018-08-20T23:27:14.049Z,17.43
2018-08-20T23:29:44.367Z,17.57
2018-08-20T23:32:13.857Z,17.47
2018-08-20T23:34:43.531Z,17.55
2018-08-20T23:37:13.921Z,17.57
2018-08-20T23:39:43.237Z,17.58
2018-08-20T23:42:13.688Z,17.44
2018-08-20T23:44:43.854Z,17.42
2018-08-20T23:47:12.903Z,17.53
2018-08-20T23:49:41.962Z,17.56
2018-08-20T23:52:11.481Z,17.43
2018-08-20T23:54:41.072Z,17.46
2018-08-20T23:57:10.616Z,17.34
2018-08-20T23:59:40.081Z,17.50
